sensor_id;sensor_type;location;lat;lon;timestamp;pressure;altitude;pressure_sealevel;temperature;humidity
47742;BME280;33504;52.066;6.096;2022-09-24T00:01:52;101240.04;;;16.37;50.52
47742;BME280;33504;52.066;6.096;2022-09-24T00:04:19;101243.87;;;16.25;51.45
47742;BME280;33504;52.066;6.096;2022-09-24T00:06:50;101242.37;;;16.55;51.16
47742;BME280;33504;52.066;6.096;2022-09-24T00:09:19;101243.75;;;16.67;50.94
47742;BME280;33504;52.066;6.096;2022-09-24T00:11:47;101244.31;;;16.68;50.97
47742;BME280;33504;52.066;6.096;2022-09-24T00:14:15;101243.21;;;16.18;50.87
47742;BME280;33504;52.066;6.096;2022-09-24T00:16:44;101235.87;;;16.71;50.77
47742;BME280;33504;52.066;6.096;2022-09-24T00:19:12;101239.54;;;16.61;51.14
47742;BME280;33504;52.066;6.096;2022-09-24T00:21:40;101237.35;;;16.35;51.55
47742;BME280;33504;52.066;6.096;2022-09-24T00:24:09;101232.33;;;16.49;50.90
47742;BME280;33504;52.066;6.096;2022-09-24T00:26:39;101233.06;;;16.32;51.79
47742;BME280;33504;52.066;6.096;2022-09-24T00:29:07;101232.51;;;16.19;51.91
47742;BME280;33504;52.066;6.096;2022-09-24T00:31:35;101230.31;;;16.45;51.44
47742;BME280;33504;52.066;6.096;2022-09-24T00:34:02;101227.16;;;16.42;51.53
47742;BME280;33504;52.066;6.096;2022-09-24T00:36:30;101225.11;;;16.59;51.04
47742;BME280;33504;52.066;6.096;2022-09-24T00:38:58;101223.58;;;16.40;51.07
47742;BME280;33504;52.066;6.096;2022-09-24T00:41:28;101222.57;;;16.58;51.19
47742;BME280;33504;52.066;6.096;2022-09-24T00:43:57;101218.16;;;16.38;51.06
47742;BME280;33504;52.066;6.096;2022-09-24T00:46:27;101215.65;;;16.69;50.96
47742;BME280;33504;52.066;6.096;2022-09-24T00:48:59;101212.39;;;16.50;50.92
47742;BME280;33504;52.066;6.096;2022-09-24T00:51:29;101210.77;;;16.64;50.86
47742;BME280;33504;52.066;6.096;2022-09-24T00:53:59;101207.97;;;16.73;50.93
47742;BME280;33504;52.066;6.096;2022-09-24T00:56:30;101207.61;;;16.59;50.80
47742;BME280;33504;52.066;6.096;2022-09-24T00:59:00;101205.89;;;16.81;50.73
47742;BME280;33504;52.066;6.096;2022-09-24T01:01:28;101201.01;;;16.63;50.79
47742;BME280;33504;52.066;6.096;2022-09-24T01:03:56;101198.38;;;16.56;50.91
47742;BME280;33504;52.066;6.096;2022-09-24T01:06:24;101197.11;;;16.41;50.61
47742;BME280;33504;52.066;6.096;2022-09-24T01:08:52;101194.84;;;16.67;50.54
47742;BME280;33504;52.066;6.096;2022-09-24T01:11:30;101195.54;;;16.22;51.06
47742;BME280;33504;52.066;6.096;2022-09-24T01:14:18;101190.86;;;16.87;50.70
47742;BME280;33504;52.066;6.096;2022-09-24T01:16:53;101184.92;;;16.37;51.02
47742;BME280;33504;52.066;6.096;2022-09-24T01:19:42;101182.26;;;16.43;50.94
47742;BME280;33504;52.066;6.096;2022-09-24T01:22:24;101181.74;;;16.61;50.97
47742;BME280;33504;52.066;6.096;2022-09-24T01:24:59;101182.03;;;16.54;51.23
47742;BME280;33504;52.066;6.096;2022-09-24T01:27:41;101180.67;;;16.50;51.08
47742;BME280;33504;52.066;6.096;2022-09-24T01:30:12;101179.12;;;16.36;51.09
47742;BME280;33504;52.066;6.096;2022-09-24T01:32:42;101174.24;;;16.48;51.38
47742;BME280;33504;52.066;6.096;2022-09-24T01:35:15;101173.58;;;16.25;51.80
47742;BME280;33504;52.066;6.096;2022-09-24T01:37:49;101170.95;;;16.37;51.59
47742;BME280;33504;52.066;6.096;2022-09-24T01:40:21;101165.33;;;16.27;51.88
47742;BME280;33504;52.066;6.096;2022-09-24T01:42:51;101164.88;;;16.41;51.58
47742;BME280;33504;52.066;6.096;2022-09-24T01:45:19;101163.93;;;15.52;52.22
47742;BME280;33504;52.066;6.096;2022-09-24T01:47:46;101158.70;;;16.13;51.09
47742;BME280;33504;52.066;6.096;2022-09-24T01:50:16;101156.95;;;16.31;50.82
47742;BME280;33504;52.066;6.096;2022-09-24T01:52:47;101156.36;;;16.40;50.46
47742;BME280;33504;52.066;6.096;2022-09-24T01:55:19;101154.68;;;16.67;50.06
47742;BME280;33504;52.066;6.096;2022-09-24T01:57:51;101154.13;;;16.39;49.68
47742;BME280;33504;52.066;6.096;2022-09-24T02:00:20;101150.50;;;16.41;49.93
47742;BME280;33504;52.066;6.096;2022-09-24T02:02:52;101149.70;;;16.62;49.52
47742;BME280;33504;52.066;6.096;2022-09-24T02:05:30;101150.09;;;16.66;49.46
47742;BME280;33504;52.066;6.096;2022-09-24T02:08:04;101144.62;;;16.57;49.61
47742;BME280;33504;52.066;6.096;2022-09-24T02:10:35;101144.94;;;17.07;49.51
47742;BME280;33504;52.066;6.096;2022-09-24T02:13:07;101144.78;;;16.64;49.76
47742;BME280;33504;52.066;6.096;2022-09-24T02:15:38;101141.32;;;16.72;50.00
47742;BME280;33504;52.066;6.096;2022-09-24T02:18:08;101142.68;;;16.51;50.23
47742;BME280;33504;52.066;6.096;2022-09-24T02:20:39;101140.57;;;16.46;50.47
47742;BME280;33504;52.066;6.096;2022-09-24T02:23:08;101140.85;;;16.57;50.51
47742;BME280;33504;52.066;6.096;2022-09-24T02:25:40;101138.61;;;16.21;50.81
47742;BME280;33504;52.066;6.096;2022-09-24T02:28:08;101136.40;;;16.06;51.35
47742;BME280;33504;52.066;6.096;2022-09-24T02:30:39;101136.32;;;16.46;50.92
47742;BME280;33504;52.066;6.096;2022-09-24T02:33:09;101136.06;;;16.39;51.04
47742;BME280;33504;52.066;6.096;2022-09-24T02:35:38;101131.59;;;16.52;50.75
47742;BME280;33504;52.066;6.096;2022-09-24T02:38:14;101129.56;;;16.32;50.99
47742;BME280;33504;52.066;6.096;2022-09-24T02:40:42;101129.28;;;16.39;50.95
47742;BME280;33504;52.066;6.096;2022-09-24T02:43:09;101127.27;;;16.07;51.06
47742;BME280;33504;52.066;6.096;2022-09-24T02:45:36;101126.73;;;16.18;51.30
47742;BME280;33504;52.066;6.096;2022-09-24T02:48:03;101124.70;;;15.96;51.84
47742;BME280;33504;52.066;6.096;2022-09-24T02:50:30;101121.68;;;15.83;51.92
47742;BME280;33504;52.066;6.096;2022-09-24T02:52:57;101124.28;;;16.32;51.49
47742;BME280;33504;52.066;6.096;2022-09-24T02:55:24;101121.60;;;16.20;51.33
47742;BME280;33504;52.066;6.096;2022-09-24T02:57:51;101122.74;;;16.09;51.43
47742;BME280;33504;52.066;6.096;2022-09-24T03:00:18;101121.68;;;16.12;51.34
47742;BME280;33504;52.066;6.096;2022-09-24T03:02:45;101120.60;;;16.05;51.43
47742;BME280;33504;52.066;6.096;2022-09-24T03:05:12;101118.71;;;16.14;51.04
47742;BME280;33504;52.066;6.096;2022-09-24T03:07:39;101119.46;;;15.98;51.53
47742;BME280;33504;52.066;6.096;2022-09-24T03:10:07;101118.49;;;15.92;51.48
47742;BME280;33504;52.066;6.096;2022-09-24T03:12:35;101118.41;;;16.10;51.11
47742;BME280;33504;52.066;6.096;2022-09-24T03:15:02;101118.72;;;16.01;51.08
47742;BME280;33504;52.066;6.096;2022-09-24T03:17:29;101120.10;;;16.03;51.11
47742;BME280;33504;52.066;6.096;2022-09-24T03:19:56;101119.32;;;16.14;51.00
47742;BME280;33504;52.066;6.096;2022-09-24T03:22:28;101117.38;;;16.05;51.41
47742;BME280;33504;52.066;6.096;2022-09-24T03:24:55;101116.24;;;16.05;51.44
47742;BME280;33504;52.066;6.096;2022-09-24T03:27:21;101113.14;;;16.19;51.25
47742;BME280;33504;52.066;6.096;2022-09-24T03:29:48;101112.12;;;15.89;51.79
47742;BME280;33504;52.066;6.096;2022-09-24T03:32:15;101110.49;;;16.14;51.29
47742;BME280;33504;52.066;6.096;2022-09-24T03:34:42;101108.41;;;16.15;51.37
47742;BME280;33504;52.066;6.096;2022-09-24T03:37:10;101109.65;;;16.25;51.06
47742;BME280;33504;52.066;6.096;2022-09-24T03:39:37;101109.42;;;16.14;51.20
47742;BME280;33504;52.066;6.096;2022-09-24T03:42:04;101106.61;;;16.28;50.99
47742;BME280;33504;52.066;6.096;2022-09-24T03:44:30;101103.29;;;16.28;51.18
47742;BME280;33504;52.066;6.096;2022-09-24T03:46:58;101103.36;;;16.33;50.77
47742;BME280;33504;52.066;6.096;2022-09-24T03:49:25;101098.81;;;16.30;50.85
47742;BME280;33504;52.066;6.096;2022-09-24T03:51:51;101100.85;;;16.35;50.85
47742;BME280;33504;52.066;6.096;2022-09-24T03:54:19;101102.77;;;16.41;50.68
47742;BME280;33504;52.066;6.096;2022-09-24T03:56:46;101102.01;;;16.43;50.64
47742;BME280;33504;52.066;6.096;2022-09-24T03:59:13;101099.19;;;16.40;50.53
47742;BME280;33504;52.066;6.096;2022-09-24T04:01:40;101097.92;;;16.28;50.54
47742;BME280;33504;52.066;6.096;2022-09-24T04:04:07;101097.56;;;16.40;50.42
47742;BME280;33504;52.066;6.096;2022-09-24T04:06:34;101095.29;;;16.48;50.30
47742;BME280;33504;52.066;6.096;2022-09-24T04:09:01;101096.27;;;16.55;50.18
47742;BME280;33504;52.066;6.096;2022-09-24T04:11:29;101094.65;;;16.36;49.95
47742;BME280;33504;52.066;6.096;2022-09-24T04:13:56;101094.87;;;16.36;49.84
47742;BME280;33504;52.066;6.096;2022-09-24T04:16:23;101093.92;;;16.52;49.46
47742;BME280;33504;52.066;6.096;2022-09-24T04:18:50;101091.10;;;16.31;50.05
47742;BME280;33504;52.066;6.096;2022-09-24T04:21:17;101089.05;;;16.34;50.13
47742;BME280;33504;52.066;6.096;2022-09-24T04:23:44;101089.12;;;16.44;50.04
47742;BME280;33504;52.066;6.096;2022-09-24T04:26:11;101089.17;;;16.51;49.93
47742;BME280;33504;52.066;6.096;2022-09-24T04:28:38;101086.39;;;16.54;49.92
47742;BME280;33504;52.066;6.096;2022-09-24T04:31:05;101083.66;;;16.50;50.11
47742;BME280;33504;52.066;6.096;2022-09-24T04:33:32;101087.01;;;16.38;50.26
47742;BME280;33504;52.066;6.096;2022-09-24T04:36:00;101085.45;;;16.41;50.23
47742;BME280;33504;52.066;6.096;2022-09-24T04:38:26;101086.07;;;16.47;50.20
47742;BME280;33504;52.066;6.096;2022-09-24T04:40:53;101089.07;;;16.53;50.20
47742;BME280;33504;52.066;6.096;2022-09-24T04:43:20;101088.68;;;16.56;50.12
47742;BME280;33504;52.066;6.096;2022-09-24T04:45:47;101092.00;;;16.66;50.05
47742;BME280;33504;52.066;6.096;2022-09-24T04:48:14;101088.05;;;16.58;50.25
47742;BME280;33504;52.066;6.096;2022-09-24T04:50:41;101089.66;;;16.60;50.16
47742;BME280;33504;52.066;6.096;2022-09-24T04:53:08;101086.51;;;16.35;50.33
47742;BME280;33504;52.066;6.096;2022-09-24T04:55:35;101084.85;;;16.63;50.17
47742;BME280;33504;52.066;6.096;2022-09-24T04:58:02;101086.31;;;16.67;50.09
47742;BME280;33504;52.066;6.096;2022-09-24T05:00:29;101087.95;;;16.59;50.04
47742;BME280;33504;52.066;6.096;2022-09-24T05:02:57;101090.92;;;16.55;49.96
47742;BME280;33504;52.066;6.096;2022-09-24T05:05:25;101090.03;;;16.50;50.11
47742;BME280;33504;52.066;6.096;2022-09-24T05:07:52;101091.09;;;16.57;49.91
47742;BME280;33504;52.066;6.096;2022-09-24T05:10:19;101092.96;;;16.18;50.05
47742;BME280;33504;52.066;6.096;2022-09-24T05:12:47;101092.06;;;16.40;50.05
47742;BME280;33504;52.066;6.096;2022-09-24T05:15:14;101091.96;;;15.99;50.37
47742;BME280;33504;52.066;6.096;2022-09-24T05:17:41;101093.67;;;16.08;50.56
47742;BME280;33504;52.066;6.096;2022-09-24T05:20:09;101091.26;;;16.18;50.50
47742;BME280;33504;52.066;6.096;2022-09-24T05:22:39;101089.13;;;16.26;50.31
47742;BME280;33504;52.066;6.096;2022-09-24T05:25:06;101088.70;;;16.32;50.20
47742;BME280;33504;52.066;6.096;2022-09-24T05:27:34;101091.04;;;15.97;50.86
47742;BME280;33504;52.066;6.096;2022-09-24T05:30:00;101090.94;;;15.85;50.82
47742;BME280;33504;52.066;6.096;2022-09-24T05:32:28;101092.94;;;16.10;50.54
47742;BME280;33504;52.066;6.096;2022-09-24T05:34:55;101093.03;;;16.10;50.53
47742;BME280;33504;52.066;6.096;2022-09-24T05:37:22;101091.66;;;16.11;50.54
47742;BME280;33504;52.066;6.096;2022-09-24T05:39:49;101091.50;;;16.17;50.50
47742;BME280;33504;52.066;6.096;2022-09-24T05:42:16;101090.40;;;15.95;50.97
47742;BME280;33504;52.066;6.096;2022-09-24T05:44:43;101091.57;;;16.17;50.54
47742;BME280;33504;52.066;6.096;2022-09-24T05:47:10;101093.97;;;16.25;50.31
47742;BME280;33504;52.066;6.096;2022-09-24T05:49:37;101095.00;;;16.56;50.22
47742;BME280;33504;52.066;6.096;2022-09-24T05:52:05;101098.88;;;16.30;50.28
47742;BME280;33504;52.066;6.096;2022-09-24T05:54:32;101100.85;;;16.35;50.15
47742;BME280;33504;52.066;6.096;2022-09-24T05:56:59;101101.35;;;16.34;50.11
47742;BME280;33504;52.066;6.096;2022-09-24T05:59:26;101102.83;;;16.34;50.14
47742;BME280;33504;52.066;6.096;2022-09-24T06:01:52;101105.02;;;16.38;49.99
47742;BME280;33504;52.066;6.096;2022-09-24T06:04:20;101106.82;;;16.42;50.02
47742;BME280;33504;52.066;6.096;2022-09-24T06:06:47;101108.13;;;16.48;50.07
47742;BME280;33504;52.066;6.096;2022-09-24T06:09:14;101108.36;;;16.45;50.14
47742;BME280;33504;52.066;6.096;2022-09-24T06:11:41;101105.30;;;16.49;50.12
47742;BME280;33504;52.066;6.096;2022-09-24T06:14:08;101107.45;;;16.52;50.00
47742;BME280;33504;52.066;6.096;2022-09-24T06:16:35;101106.05;;;16.43;50.08
47742;BME280;33504;52.066;6.096;2022-09-24T06:19:02;101108.98;;;16.42;50.13
47742;BME280;33504;52.066;6.096;2022-09-24T06:21:29;101109.58;;;16.28;50.12
47742;BME280;33504;52.066;6.096;2022-09-24T06:23:56;101113.54;;;16.25;50.22
47742;BME280;33504;52.066;6.096;2022-09-24T06:26:23;101107.29;;;15.65;51.31
47742;BME280;33504;52.066;6.096;2022-09-24T06:28:51;101111.05;;;16.03;50.74
47742;BME280;33504;52.066;6.096;2022-09-24T06:31:18;101111.33;;;15.93;50.90
47742;BME280;33504;52.066;6.096;2022-09-24T06:33:45;101112.00;;;15.98;50.87
47742;BME280;33504;52.066;6.096;2022-09-24T06:36:12;101113.97;;;16.00;50.79
47742;BME280;33504;52.066;6.096;2022-09-24T06:38:39;101113.62;;;15.66;51.43
47742;BME280;33504;52.066;6.096;2022-09-24T06:41:06;101117.70;;;15.92;50.94
47742;BME280;33504;52.066;6.096;2022-09-24T06:43:33;101119.27;;;15.93;50.95
47742;BME280;33504;52.066;6.096;2022-09-24T06:46:01;101121.08;;;15.74;51.32
47742;BME280;33504;52.066;6.096;2022-09-24T06:48:29;101126.11;;;15.95;50.94
47742;BME280;33504;52.066;6.096;2022-09-24T06:50:56;101127.63;;;15.90;51.26
47742;BME280;33504;52.066;6.096;2022-09-24T06:53:23;101129.54;;;16.32;51.12
47742;BME280;33504;52.066;6.096;2022-09-24T06:55:50;101130.22;;;16.23;50.93
47742;BME280;33504;52.066;6.096;2022-09-24T06:58:19;101129.73;;;15.92;51.38
47742;BME280;33504;52.066;6.096;2022-09-24T07:00:51;101135.41;;;16.07;51.23
47742;BME280;33504;52.066;6.096;2022-09-24T07:03:17;101134.26;;;16.21;50.98
47742;BME280;33504;52.066;6.096;2022-09-24T07:05:45;101135.57;;;16.07;51.18
47742;BME280;33504;52.066;6.096;2022-09-24T07:08:12;101136.19;;;16.20;50.92
47742;BME280;33504;52.066;6.096;2022-09-24T07:10:41;101136.81;;;16.02;51.37
47742;BME280;33504;52.066;6.096;2022-09-24T07:13:10;101137.22;;;16.15;51.22
47742;BME280;33504;52.066;6.096;2022-09-24T07:15:37;101138.03;;;16.21;51.11
47742;BME280;33504;52.066;6.096;2022-09-24T07:18:04;101140.65;;;16.21;51.18
47742;BME280;33504;52.066;6.096;2022-09-24T07:20:31;101142.10;;;16.34;50.99
47742;BME280;33504;52.066;6.096;2022-09-24T07:22:58;101143.72;;;16.27;50.95
47742;BME280;33504;52.066;6.096;2022-09-24T07:25:25;101145.03;;;16.24;51.00
47742;BME280;33504;52.066;6.096;2022-09-24T07:27:52;101146.64;;;16.15;51.24
47742;BME280;33504;52.066;6.096;2022-09-24T07:30:19;101147.26;;;16.31;51.02
47742;BME280;33504;52.066;6.096;2022-09-24T07:32:46;101149.84;;;16.31;50.99
47742;BME280;33504;52.066;6.096;2022-09-24T07:35:14;101151.72;;;16.33;51.00
47742;BME280;33504;52.066;6.096;2022-09-24T07:37:41;101154.38;;;16.24;51.19
47742;BME280;33504;52.066;6.096;2022-09-24T07:40:08;101157.73;;;16.39;50.98
47742;BME280;33504;52.066;6.096;2022-09-24T07:42:35;101157.45;;;16.16;50.99
47742;BME280;33504;52.066;6.096;2022-09-24T07:45:03;101160.82;;;16.46;50.92
47742;BME280;33504;52.066;6.096;2022-09-24T07:47:30;101160.72;;;16.56;50.78
47742;BME280;33504;52.066;6.096;2022-09-24T07:49:58;101162.38;;;16.52;50.97
47742;BME280;33504;52.066;6.096;2022-09-24T07:52:25;101164.35;;;16.54;50.81
47742;BME280;33504;52.066;6.096;2022-09-24T07:54:52;101166.21;;;16.46;50.97
47742;BME280;33504;52.066;6.096;2022-09-24T07:57:18;101168.24;;;16.43;51.01
47742;BME280;33504;52.066;6.096;2022-09-24T07:59:45;101167.95;;;16.34;51.40
47742;BME280;33504;52.066;6.096;2022-09-24T08:02:14;101167.82;;;16.45;51.26
47742;BME280;33504;52.066;6.096;2022-09-24T08:04:42;101167.94;;;16.33;51.13
47742;BME280;33504;52.066;6.096;2022-09-24T08:07:09;101169.30;;;16.73;51.08
47742;BME280;33504;52.066;6.096;2022-09-24T08:09:36;101171.88;;;16.61;50.99
47742;BME280;33504;52.066;6.096;2022-09-24T08:12:03;101173.71;;;16.96;50.78
47742;BME280;33504;52.066;6.096;2022-09-24T08:14:31;101174.01;;;16.73;50.62
47742;BME280;33504;52.066;6.096;2022-09-24T08:16:57;101173.76;;;16.69;50.80
47742;BME280;33504;52.066;6.096;2022-09-24T08:19:24;101175.99;;;16.83;50.86
47742;BME280;33504;52.066;6.096;2022-09-24T08:21:51;101177.31;;;16.23;51.49
47742;BME280;33504;52.066;6.096;2022-09-24T08:24:18;101180.93;;;16.60;51.29
47742;BME280;33504;52.066;6.096;2022-09-24T08:26:45;101180.98;;;16.52;51.05
47742;BME280;33504;52.066;6.096;2022-09-24T08:29:12;101184.23;;;15.93;51.85
47742;BME280;33504;52.066;6.096;2022-09-24T08:31:39;101185.00;;;16.62;51.22
47742;BME280;33504;52.066;6.096;2022-09-24T08:34:06;101186.74;;;16.73;51.18
47742;BME280;33504;52.066;6.096;2022-09-24T08:36:33;101188.28;;;16.82;51.22
47742;BME280;33504;52.066;6.096;2022-09-24T08:39:00;101188.84;;;16.54;51.37
47742;BME280;33504;52.066;6.096;2022-09-24T08:41:41;101191.14;;;16.43;51.19
47742;BME280;33504;52.066;6.096;2022-09-24T08:44:14;101194.12;;;16.71;51.25
47742;BME280;33504;52.066;6.096;2022-09-24T08:46:47;101196.79;;;16.78;51.27
47742;BME280;33504;52.066;6.096;2022-09-24T08:49:18;101198.92;;;16.53;51.22
47742;BME280;33504;52.066;6.096;2022-09-24T08:51:55;101201.49;;;16.60;51.23
47742;BME280;33504;52.066;6.096;2022-09-24T08:54:26;101203.29;;;16.81;51.29
47742;BME280;33504;52.066;6.096;2022-09-24T08:56:55;101204.13;;;16.56;52.11
47742;BME280;33504;52.066;6.096;2022-09-24T08:59:26;101204.46;;;16.58;51.56
47742;BME280;33504;52.066;6.096;2022-09-24T09:02:01;101205.66;;;16.80;51.38
47742;BME280;33504;52.066;6.096;2022-09-24T09:04:47;101209.07;;;16.95;51.19
47742;BME280;33504;52.066;6.096;2022-09-24T09:07:20;101206.80;;;17.01;51.24
47742;BME280;33504;52.066;6.096;2022-09-24T09:09:53;101209.26;;;16.84;51.24
47742;BME280;33504;52.066;6.096;2022-09-24T09:12:26;101208.53;;;16.87;50.99
47742;BME280;33504;52.066;6.096;2022-09-24T09:15:00;101211.53;;;16.66;51.18
47742;BME280;33504;52.066;6.096;2022-09-24T09:17:33;101214.79;;;16.78;51.46
47742;BME280;33504;52.066;6.096;2022-09-24T09:20:06;101217.04;;;17.02;51.38
47742;BME280;33504;52.066;6.096;2022-09-24T09:22:41;101219.98;;;16.56;51.51
47742;BME280;33504;52.066;6.096;2022-09-24T09:25:17;101223.28;;;16.99;50.98
47742;BME280;33504;52.066;6.096;2022-09-24T09:27:46;101227.95;;;16.96;51.11
47742;BME280;33504;52.066;6.096;2022-09-24T09:30:18;101231.10;;;16.89;51.10
47742;BME280;33504;52.066;6.096;2022-09-24T09:32:58;101231.81;;;16.92;50.88
47742;BME280;33504;52.066;6.096;2022-09-24T09:35:34;101233.49;;;16.85;50.75
47742;BME280;33504;52.066;6.096;2022-09-24T09:38:13;101231.89;;;16.71;51.53
47742;BME280;33504;52.066;6.096;2022-09-24T09:40:44;101231.05;;;16.64;51.42
47742;BME280;33504;52.066;6.096;2022-09-24T09:43:14;101231.42;;;16.85;51.42
47742;BME280;33504;52.066;6.096;2022-09-24T09:45:55;101233.30;;;16.89;51.49
47742;BME280;33504;52.066;6.096;2022-09-24T09:48:28;101232.41;;;16.78;51.53
47742;BME280;33504;52.066;6.096;2022-09-24T09:51:00;101234.92;;;16.65;51.20
47742;BME280;33504;52.066;6.096;2022-09-24T09:53:29;101238.54;;;16.90;51.20
47742;BME280;33504;52.066;6.096;2022-09-24T09:55:58;101237.80;;;16.42;51.66
47742;BME280;33504;52.066;6.096;2022-09-24T09:58:27;101237.96;;;16.81;51.40
47742;BME280;33504;52.066;6.096;2022-09-24T10:01:03;101242.38;;;16.55;51.98
47742;BME280;33504;52.066;6.096;2022-09-24T10:03:45;101244.47;;;16.71;51.63
47742;BME280;33504;52.066;6.096;2022-09-24T10:06:21;101248.14;;;16.38;52.10
47742;BME280;33504;52.066;6.096;2022-09-24T10:08:49;101249.20;;;16.56;51.96
47742;BME280;33504;52.066;6.096;2022-09-24T10:11:16;101247.27;;;16.54;51.66
47742;BME280;33504;52.066;6.096;2022-09-24T10:13:43;101245.09;;;16.87;51.73
47742;BME280;33504;52.066;6.096;2022-09-24T10:16:12;101245.10;;;16.92;51.25
47742;BME280;33504;52.066;6.096;2022-09-24T10:18:44;101248.93;;;16.67;51.57
47742;BME280;33504;52.066;6.096;2022-09-24T10:21:23;101242.51;;;16.32;51.49
47742;BME280;33504;52.066;6.096;2022-09-24T10:23:58;101243.46;;;16.88;50.98
47742;BME280;33504;52.066;6.096;2022-09-24T10:26:35;101240.84;;;16.84;51.40
47742;BME280;33504;52.066;6.096;2022-09-24T10:29:03;101242.71;;;16.82;51.18
47742;BME280;33504;52.066;6.096;2022-09-24T10:31:31;101244.32;;;16.39;51.66
47742;BME280;33504;52.066;6.096;2022-09-24T10:34:01;101244.12;;;16.49;51.49
47742;BME280;33504;52.066;6.096;2022-09-24T10:36:30;101243.53;;;16.88;51.36
47742;BME280;33504;52.066;6.096;2022-09-24T10:39:11;101243.33;;;16.64;51.35
47742;BME280;33504;52.066;6.096;2022-09-24T10:41:45;101245.10;;;16.99;51.22
47742;BME280;33504;52.066;6.096;2022-09-24T10:44:12;101247.37;;;17.00;51.10
47742;BME280;33504;52.066;6.096;2022-09-24T10:46:52;101248.58;;;16.92;50.92
47742;BME280;33504;52.066;6.096;2022-09-24T10:49:30;101249.37;;;16.23;51.88
47742;BME280;33504;52.066;6.096;2022-09-24T10:52:03;101249.01;;;16.68;51.68
47742;BME280;33504;52.066;6.096;2022-09-24T10:54:42;101250.66;;;16.66;51.76
47742;BME280;33504;52.066;6.096;2022-09-24T10:57:23;101249.67;;;16.83;51.72
47742;BME280;33504;52.066;6.096;2022-09-24T10:59:58;101247.07;;;16.88;51.73
47742;BME280;33504;52.066;6.096;2022-09-24T11:03:46;101252.99;;;16.60;52.15
47742;BME280;33504;52.066;6.096;2022-09-24T11:06:23;101255.22;;;16.47;51.98
47742;BME280;33504;52.066;6.096;2022-09-24T11:09:08;101256.57;;;16.26;52.43
47742;BME280;33504;52.066;6.096;2022-09-24T11:11:46;101258.16;;;16.41;52.17
47742;BME280;33504;52.066;6.096;2022-09-24T11:14:25;101259.74;;;16.15;52.88
47742;BME280;33504;52.066;6.096;2022-09-24T11:17:06;101260.06;;;16.50;52.68
47742;BME280;33504;52.066;6.096;2022-09-24T11:19:55;101260.05;;;16.35;53.08
47742;BME280;33504;52.066;6.096;2022-09-24T11:22:32;101261.24;;;16.57;52.54
47742;BME280;33504;52.066;6.096;2022-09-24T11:25:16;101263.34;;;16.55;52.02
47742;BME280;33504;52.066;6.096;2022-09-24T11:27:53;101263.68;;;16.80;52.06
47742;BME280;33504;52.066;6.096;2022-09-24T11:30:23;101265.93;;;16.44;52.63
47742;BME280;33504;52.066;6.096;2022-09-24T11:33:03;101265.02;;;16.57;51.99
47742;BME280;33504;52.066;6.096;2022-09-24T11:36:00;101266.12;;;16.31;52.25
47742;BME280;33504;52.066;6.096;2022-09-24T11:38:43;101260.62;;;16.73;51.60
47742;BME280;33504;52.066;6.096;2022-09-24T11:41:24;101264.33;;;16.33;52.05
47742;BME280;33504;52.066;6.096;2022-09-24T11:44:08;101263.62;;;16.24;52.24
47742;BME280;33504;52.066;6.096;2022-09-24T11:46:48;101264.50;;;16.36;51.76
47742;BME280;33504;52.066;6.096;2022-09-24T11:49:34;101263.68;;;16.17;52.02
47742;BME280;33504;52.066;6.096;2022-09-24T11:52:10;101259.91;;;16.41;51.73
47742;BME280;33504;52.066;6.096;2022-09-24T11:54:45;101264.03;;;16.36;51.68
47742;BME280;33504;52.066;6.096;2022-09-24T11:57:19;101259.49;;;16.89;51.51
47742;BME280;33504;52.066;6.096;2022-09-24T11:59:52;101258.91;;;16.86;51.44
47742;BME280;33504;52.066;6.096;2022-09-24T12:02:22;101259.01;;;16.93;51.35
47742;BME280;33504;52.066;6.096;2022-09-24T12:04:56;101260.86;;;17.02;51.07
47742;BME280;33504;52.066;6.096;2022-09-24T12:07:30;101260.83;;;17.40;50.93
47742;BME280;33504;52.066;6.096;2022-09-24T12:10:03;101260.03;;;17.18;50.77
47742;BME280;33504;52.066;6.096;2022-09-24T12:12:34;101260.39;;;17.20;50.81
47742;BME280;33504;52.066;6.096;2022-09-24T12:15:06;101261.84;;;17.12;50.74
47742;BME280;33504;52.066;6.096;2022-09-24T12:17:41;101262.37;;;17.19;50.68
47742;BME280;33504;52.066;6.096;2022-09-24T12:20:15;101262.19;;;16.98;50.59
47742;BME280;33504;52.066;6.096;2022-09-24T12:22:48;101260.13;;;17.18;50.71
47742;BME280;33504;52.066;6.096;2022-09-24T12:25:17;101260.36;;;16.78;50.96
47742;BME280;33504;52.066;6.096;2022-09-24T12:27:44;101260.73;;;17.00;50.80
47742;BME280;33504;52.066;6.096;2022-09-24T12:30:22;101261.02;;;17.26;50.55
47742;BME280;33504;52.066;6.096;2022-09-24T12:32:53;101264.54;;;17.31;50.66
47742;BME280;33504;52.066;6.096;2022-09-24T12:35:32;101262.89;;;17.43;50.67
47742;BME280;33504;52.066;6.096;2022-09-24T12:38:04;101262.95;;;17.46;50.59
47742;BME280;33504;52.066;6.096;2022-09-24T12:40:49;101262.83;;;17.35;50.21
47742;BME280;33504;52.066;6.096;2022-09-24T12:43:22;101262.17;;;17.54;50.29
47742;BME280;33504;52.066;6.096;2022-09-24T12:45:55;101263.31;;;17.33;50.42
47742;BME280;33504;52.066;6.096;2022-09-24T12:48:25;101264.15;;;17.52;50.65
47742;BME280;33504;52.066;6.096;2022-09-24T12:50:58;101262.32;;;17.61;50.46
47742;BME280;33504;52.066;6.096;2022-09-24T12:53:31;101262.99;;;17.60;50.36
47742;BME280;33504;52.066;6.096;2022-09-24T12:56:00;101262.16;;;17.47;50.32
47742;BME280;33504;52.066;6.096;2022-09-24T12:58:29;101262.24;;;17.78;50.29
47742;BME280;33504;52.066;6.096;2022-09-24T13:01:10;101263.05;;;17.72;50.25
47742;BME280;33504;52.066;6.096;2022-09-24T13:03:39;101261.29;;;17.53;50.01
47742;BME280;33504;52.066;6.096;2022-09-24T13:06:21;101260.22;;;17.55;49.95
47742;BME280;33504;52.066;6.096;2022-09-24T13:08:48;101257.38;;;17.53;49.96